Redwood Falls, Minnesota
Current Conditions -  °F | °C
As of 6:53 PM on Monday 20 Oct 2014 (Local Time) from KRWF Reporting Station
Clear Clear  
Wind Chill: 61°   Ceiling: Unl
Heat Index: 61°   Visibility: 10mi
Dew Point: 39°   Wind: 3mph
Humidity: 44%   Direction: 340°NNW
Pressure: 30.03"   Gusts: NA
Location:  44.54°N, 95.12°W
Report Text: KRWF 202353Z AUTO 34003KT 10SM CLR 16/04 A3003 RMK AO2 SLP172 T01610039 10200 20161 52006
Loading
Personal Weather Stations






























Interactive Weather Map
Tropical Storm Tracking
New forecast layout! Learn more

10-Day Weather Forecast

Advertisements
Track Severe Weather on mobile